Time;durP1;ratioP1;P1;durP2;ratioP2;P2;SDS_P1;SDS_P2;PMS_P1;PMS_P2;Temp;Humidity;BMP_temperature;BMP_pressure;BME280_temperature;BME280_humidity;BME280_pressure;Samples;Min_cycle;Max_cycle;Signal;HPM_P1;HPM_P2
2022/01/01 00:00:49;;;;;;;56.20;25.55;;;11.30;99.90;;;;;;4969490;28;20043;-68
2022/01/01 00:03:15;;;;;;;50.47;24.25;;;11.30;99.90;;;;;;4971319;28;20043;-68
2022/01/01 00:05:41;;;;;;;53.08;23.17;;;11.30;99.90;;;;;;4971452;28;20140;-68
2022/01/01 00:08:08;;;;;;;54.00;25.05;;;11.20;99.90;;;;;;4977831;28;20490;-68
2022/01/01 00:10:34;;;;;;;56.90;26.88;;;11.30;99.90;;;;;;4988249;28;20058;-68
2022/01/01 00:12:59;;;;;;;46.50;26.02;;;11.20;99.90;;;;;;4989523;28;20054;-68
2022/01/01 00:15:25;;;;;;;57.97;27.98;;;10.60;99.90;;;;;;4987618;28;20049;-67
2022/01/01 00:17:51;;;;;;;63.60;27.55;;;11.10;99.90;;;;;;4989811;28;20516;-68
2022/01/01 00:20:16;;;;;;;63.42;28.05;;;11.20;99.90;;;;;;4988278;28;20124;-68
2022/01/01 00:22:43;;;;;;;56.38;26.98;;;11.10;99.90;;;;;;4988333;28;20050;-68
2022/01/01 00:25:10;;;;;;;67.85;27.20;;;11.20;99.90;;;;;;4989660;28;20043;-68
2022/01/01 00:27:35;;;;;;;58.20;28.30;;;11.20;99.90;;;;;;4989993;28;20047;-68
2022/01/01 00:30:02;;;;;;;57.10;28.25;;;11.20;99.90;;;;;;4987403;28;20434;-68
2022/01/01 00:32:28;;;;;;;57.65;27.13;;;11.20;99.90;;;;;;4989673;28;20114;-68
2022/01/01 00:34:54;;;;;;;58.60;25.65;;;11.20;99.90;;;;;;4988788;28;20108;-68
2022/01/01 00:37:20;;;;;;;51.70;25.40;;;11.10;99.90;;;;;;4990572;28;20042;-68
2022/01/01 00:39:46;;;;;;;54.80;21.90;;;11.10;99.90;;;;;;4989012;28;20042;-68
2022/01/01 00:42:11;;;;;;;48.95;21.27;;;11.10;99.90;;;;;;4989637;28;20096;-68
2022/01/01 00:44:37;;;;;;;47.30;19.55;;;11.10;99.90;;;;;;4988883;28;20054;-68
2022/01/01 00:47:03;;;;;;;45.92;19.15;;;11.10;99.90;;;;;;4992094;28;20537;-68
2022/01/01 00:49:29;;;;;;;48.85;19.77;;;11.10;99.90;;;;;;4969107;28;20125;-68
2022/01/01 00:51:55;;;;;;;52.78;19.60;;;11.10;99.90;;;;;;4969570;28;20053;-68
2022/01/01 00:54:20;;;;;;;49.05;20.48;;;11.10;99.90;;;;;;4968837;28;20039;-68
2022/01/01 00:56:46;;;;;;;53.92;19.67;;;11.00;99.90;;;;;;4969488;28;20443;-68
2022/01/01 00:59:12;;;;;;;49.70;21.88;;;12.10;99.90;;;;;;4969872;28;20046;-68
2022/01/01 01:01:38;;;;;;;53.05;21.25;;;11.10;99.90;;;;;;4969855;28;20466;-68
2022/01/01 01:04:04;;;;;;;58.90;23.77;;;11.10;99.90;;;;;;4969660;28;20054;-68
2022/01/01 01:06:30;;;;;;;51.10;21.90;;;11.10;99.90;;;;;;4968350;28;20039;-68
2022/01/01 01:08:58;;;;;;;59.22;23.77;;;11.00;99.90;;;;;;4969691;28;20050;-68
2022/01/01 01:11:25;;;;;;;48.40;21.45;;;11.00;99.90;;;;;;4967761;28;20130;-68
2022/01/01 01:14:07;;;;;;;56.05;22.90;;;11.00;99.90;;;;;;4969805;28;20051;-68
2022/01/01 01:16:33;;;;;;;52.33;22.52;;;10.90;99.90;;;;;;4969361;28;20104;-68
2022/01/01 01:18:58;;;;;;;50.58;21.17;;;10.90;99.90;;;;;;4969373;28;20075;-68
2022/01/01 01:21:25;;;;;;;56.35;22.30;;;10.90;99.90;;;;;;4984428;28;20051;-68
2022/01/01 01:23:53;;;;;;;60.53;22.42;;;11.00;99.90;;;;;;4970020;28;20053;-68
2022/01/01 01:26:18;;;;;;;55.92;22.83;;;10.80;99.90;;;;;;4951173;28;20084;-68
2022/01/01 01:28:50;;;;;;;48.28;20.70;;;10.70;99.90;;;;;;4969701;28;20141;-68
2022/01/01 01:31:17;;;;;;;57.55;21.45;;;10.70;99.90;;;;;;4968764;28;20043;-68
2022/01/01 01:33:46;;;;;;;57.22;21.88;;;10.70;99.90;;;;;;4969779;28;20398;-68
2022/01/01 01:36:12;;;;;;;53.10;21.02;;;10.70;99.90;;;;;;4970082;28;20049;-68
2022/01/01 01:38:38;;;;;;;56.92;19.52;;;10.60;99.90;;;;;;4968008;28;20072;-68
2022/01/01 01:41:05;;;;;;;58.42;20.30;;;10.80;99.90;;;;;;4969568;28;20117;-68
2022/01/01 01:43:30;;;;;;;48.13;19.50;;;10.60;99.90;;;;;;4968875;28;20097;-68
2022/01/01 01:46:02;;;;;;;53.75;18.25;;;10.60;99.90;;;;;;4970741;28;20042;-67
2022/01/01 01:48:28;;;;;;;57.15;20.48;;;10.60;99.90;;;;;;4988521;28;20046;-68
2022/01/01 01:50:55;;;;;;;58.70;20.75;;;10.60;99.90;;;;;;4989060;28;20065;-68
2022/01/01 01:53:21;;;;;;;53.70;19.48;;;10.60;99.90;;;;;;4987972;28;20057;-68
2022/01/01 01:55:47;;;;;;;57.83;21.83;;;10.60;99.90;;;;;;4989184;28;20051;-67
2022/01/01 01:58:12;;;;;;;69.38;21.38;;;10.70;99.90;;;;;;4990197;28;20054;-67
2022/01/01 02:01:11;;;;;;;64.22;25.13;;;10.70;99.90;;;;;;4987183;28;20061;-68
2022/01/01 02:03:35;;;;;;;58.78;23.65;;;10.70;99.90;;;;;;4988581;28;20892;-67
2022/01/01 02:06:03;;;;;;;55.25;22.15;;;10.60;99.90;;;;;;4988340;28;20045;-67
2022/01/01 02:08:29;;;;;;;60.58;24.65;;;10.70;99.90;;;;;;4986107;28;20121;-67
2022/01/01 02:10:55;;;;;;;68.72;26.20;;;10.70;99.90;;;;;;4987634;28;20515;-67
2022/01/01 02:14:00;;;;;;;72.43;26.65;;;10.80;99.90;;;;;;4988573;28;20418;-68
2022/01/01 02:16:15;;;;;;;67.35;25.00;;;10.70;99.90;;;;;;4987668;28;20038;-68
2022/01/01 02:18:43;;;;;;;65.85;29.40;;;10.80;99.90;;;;;;4987449;28;20034;-67
2022/01/01 02:21:09;;;;;;;74.68;30.75;;;10.80;99.90;;;;;;4988136;28;20137;-68
2022/01/01 02:23:35;;;;;;;79.20;31.20;;;10.90;99.90;;;;;;4986563;28;20230;-67
2022/01/01 02:26:00;;;;;;;77.53;32.92;;;11.60;99.90;;;;;;4988532;28;20077;-67
2022/01/01 02:28:26;;;;;;;84.80;33.05;;;11.00;99.90;;;;;;4987943;28;20050;-67
2022/01/01 02:30:51;;;;;;;84.22;33.35;;;11.10;99.90;;;;;;4988409;28;20134;-67
2022/01/01 02:33:18;;;;;;;82.43;36.08;;;11.10;99.90;;;;;;4989163;28;20137;-67
2022/01/01 02:35:43;;;;;;;96.10;37.05;;;11.00;99.90;;;;;;4986248;28;20057;-68
2022/01/01 02:38:09;;;;;;;86.22;37.88;;;11.00;99.90;;;;;;4987168;28;20050;-67
2022/01/01 02:40:36;;;;;;;97.45;38.97;;;11.00;99.90;;;;;;4988859;28;20405;-67
2022/01/01 02:43:02;;;;;;;83.57;34.05;;;11.00;99.90;;;;;;4993064;28;20042;-68
2022/01/01 02:45:29;;;;;;;99.63;40.38;;;11.00;99.90;;;;;;4991125;28;20144;-67
2022/01/01 02:47:54;;;;;;;99.95;40.33;;;11.10;99.90;;;;;;4992174;28;20120;-67
2022/01/01 02:50:20;;;;;;;95.15;40.90;;;11.40;99.90;;;;;;4990696;28;20467;-67
2022/01/01 02:52:47;;;;;;;96.90;36.30;;;11.40;99.90;;;;;;4991889;28;20054;-67
2022/01/01 02:55:13;;;;;;;86.88;36.03;;;11.10;99.90;;;;;;4989990;28;20053;-67
2022/01/01 02:57:38;;;;;;;80.45;34.97;;;11.10;99.90;;;;;;4992355;28;20042;-67
2022/01/01 03:00:05;;;;;;;79.05;32.78;;;11.10;99.90;;;;;;4991817;28;20177;-68
2022/01/01 03:02:31;;;;;;;93.55;34.67;;;11.10;99.90;;;;;;4991723;28;20129;-68
2022/01/01 03:04:56;;;;;;;78.30;30.90;;;11.10;99.90;;;;;;4963813;28;20526;-67
2022/01/01 03:07:22;;;;;;;75.15;28.52;;;11.20;99.90;;;;;;4970694;28;20042;-67
2022/01/01 03:09:48;;;;;;;82.32;28.33;;;11.10;99.90;;;;;;4970967;28;20093;-67
2022/01/01 03:12:15;;;;;;;75.72;29.25;;;11.10;99.90;;;;;;4971893;28;20097;-67
2022/01/01 03:14:41;;;;;;;81.13;27.38;;;11.20;99.90;;;;;;4971378;28;20074;-67
2022/01/01 03:17:07;;;;;;;77.47;28.25;;;11.10;99.90;;;;;;4989180;28;20038;-67
2022/01/01 03:19:33;;;;;;;74.78;27.05;;;11.10;99.90;;;;;;4973012;28;20054;-67
2022/01/01 03:22:00;;;;;;;77.80;30.27;;;11.10;99.90;;;;;;4990786;28;20068;-68
2022/01/01 03:24:26;;;;;;;82.18;29.23;;;11.20;99.90;;;;;;4987727;28;20402;-67
2022/01/01 03:26:52;;;;;;;72.90;27.58;;;11.20;99.90;;;;;;4990653;28;20060;-68
2022/01/01 03:29:18;;;;;;;78.60;29.10;;;11.10;99.90;;;;;;4989945;28;20161;-68
2022/01/01 03:31:43;;;;;;;72.15;27.35;;;11.20;99.90;;;;;;4989470;28;20050;-67
2022/01/01 03:34:09;;;;;;;73.80;27.05;;;11.20;99.90;;;;;;4973801;28;20038;-67
2022/01/01 03:36:35;;;;;;;73.07;29.98;;;11.20;99.90;;;;;;4989194;28;20071;-68
2022/01/01 03:39:02;;;;;;;73.43;29.42;;;11.20;99.90;;;;;;4989091;28;20402;-67
2022/01/01 03:41:27;;;;;;;77.38;27.67;;;11.20;99.90;;;;;;4990539;28;20101;-67
2022/01/01 03:43:53;;;;;;;72.65;29.77;;;11.20;99.90;;;;;;4991142;28;20042;-67
2022/01/01 03:46:19;;;;;;;77.75;29.48;;;11.20;99.90;;;;;;4988307;28;20046;-67
2022/01/01 03:48:44;;;;;;;81.43;30.15;;;11.10;99.90;;;;;;4990892;28;20545;-67
2022/01/01 03:51:10;;;;;;;80.55;29.58;;;11.10;99.90;;;;;;4990497;28;20528;-68
2022/01/01 03:53:36;;;;;;;77.07;28.60;;;11.10;99.90;;;;;;4988698;28;20111;-67
2022/01/01 03:56:01;;;;;;;76.43;27.30;;;11.10;99.90;;;;;;4990782;28;20050;-67
2022/01/01 03:58:27;;;;;;;78.47;26.27;;;11.10;99.90;;;;;;4990579;28;20042;-67
2022/01/01 04:00:53;;;;;;;70.32;25.30;;;11.10;99.90;;;;;;4987895;28;20046;-67
2022/01/01 04:03:18;;;;;;;72.05;25.23;;;11.20;99.90;;;;;;4990653;28;20121;-67
2022/01/01 04:05:45;;;;;;;62.10;23.80;;;11.10;99.90;;;;;;4989407;28;20073;-68
2022/01/01 04:08:13;;;;;;;69.65;24.27;;;11.10;99.90;;;;;;4990080;28;20058;-68
2022/01/01 04:10:39;;;;;;;76.22;25.42;;;11.10;99.90;;;;;;4972743;28;20128;-67
2022/01/01 04:13:06;;;;;;;77.95;25.15;;;11.10;99.90;;;;;;4989953;28;20100;-67
2022/01/01 04:15:33;;;;;;;65.05;25.95;;;11.10;99.90;;;;;;4988122;28;20058;-67
2022/01/01 04:18:08;;;;;;;69.93;25.40;;;11.10;99.90;;;;;;4988835;28;20069;-68
2022/01/01 04:20:33;;;;;;;65.97;25.42;;;11.00;99.90;;;;;;4990967;28;20066;-67
2022/01/01 04:22:59;;;;;;;63.55;23.08;;;11.00;99.90;;;;;;4988753;28;20507;-68
2022/01/01 04:25:26;;;;;;;68.15;22.58;;;11.10;99.90;;;;;;4988434;28;20081;-67
2022/01/01 04:27:54;;;;;;;64.22;24.80;;;11.00;99.90;;;;;;4972076;28;20043;-67
2022/01/01 04:30:21;;;;;;;68.43;24.35;;;11.10;99.90;;;;;;4968686;28;20069;-68
2022/01/01 04:32:47;;;;;;;75.05;25.00;;;11.10;99.90;;;;;;4971084;28;20413;-68
2022/01/01 04:35:14;;;;;;;67.32;25.50;;;11.00;99.90;;;;;;4972359;28;20050;-67
2022/01/01 04:37:40;;;;;;;71.25;26.67;;;11.10;99.90;;;;;;4988728;28;20145;-67
2022/01/01 04:40:07;;;;;;;65.43;26.23;;;11.00;99.90;;;;;;4989715;28;20145;-68
2022/01/01 04:42:33;;;;;;;73.10;26.98;;;11.00;99.90;;;;;;4990397;28;20434;-67
2022/01/01 04:44:59;;;;;;;66.95;24.48;;;11.10;99.90;;;;;;4989814;28;20105;-67
2022/01/01 04:47:25;;;;;;;58.65;26.42;;;11.10;99.90;;;;;;4988609;28;20050;-67
2022/01/01 04:49:51;;;;;;;56.08;25.17;;;11.20;99.90;;;;;;4987718;28;20120;-67
2022/01/01 04:52:18;;;;;;;62.20;27.33;;;11.10;99.90;;;;;;4988179;28;20479;-67
2022/01/01 04:54:44;;;;;;;75.90;27.65;;;11.10;99.90;;;;;;4990286;28;20455;-67
2022/01/01 04:57:11;;;;;;;63.47;27.92;;;11.10;99.90;;;;;;4989223;28;20050;-67
2022/01/01 04:59:38;;;;;;;69.30;28.02;;;11.10;99.90;;;;;;4988432;28;20478;-67
2022/01/01 05:02:04;;;;;;;66.30;29.40;;;11.00;99.90;;;;;;4990004;28;20046;-68
2022/01/01 05:04:30;;;;;;;75.03;29.58;;;11.10;99.90;;;;;;4987788;28;20050;-67
2022/01/01 05:06:56;;;;;;;71.13;30.08;;;11.10;99.90;;;;;;4989920;28;20391;-67
2022/01/01 05:09:22;;;;;;;72.25;31.63;;;11.10;99.90;;;;;;4988299;28;20089;-67
2022/01/01 05:11:49;;;;;;;73.18;33.88;;;11.10;99.90;;;;;;4992743;28;20070;-67
2022/01/01 05:14:16;;;;;;;74.18;31.88;;;11.10;99.90;;;;;;4989763;28;20089;-67
2022/01/01 05:16:42;;;;;;;73.53;34.08;;;11.10;99.90;;;;;;4988442;28;20092;-67
2022/01/01 05:19:08;;;;;;;79.55;36.20;;;11.60;99.90;;;;;;4989722;28;20042;-67
2022/01/01 05:21:36;;;;;;;78.10;39.45;;;11.10;99.90;;;;;;4991357;28;20502;-67
2022/01/01 05:24:04;;;;;;;92.15;40.50;;;11.10;99.90;;;;;;4990788;28;20509;-67
2022/01/01 05:26:31;;;;;;;86.30;40.35;;;11.10;99.90;;;;;;4989997;28;20084;-67
2022/01/01 05:28:56;;;;;;;95.68;42.50;;;11.10;99.90;;;;;;4989783;28;20133;-68
2022/01/01 05:31:23;;;;;;;98.93;47.08;;;11.10;99.90;;;;;;4987605;28;20117;-67
2022/01/01 05:33:50;;;;;;;102.35;47.65;;;11.10;99.90;;;;;;4989434;28;20065;-67
2022/01/01 05:36:16;;;;;;;95.00;44.83;;;11.10;99.90;;;;;;4988814;28;20054;-67
2022/01/01 05:38:42;;;;;;;101.40;51.33;;;11.10;99.90;;;;;;4988602;28;20038;-67
2022/01/01 05:41:08;;;;;;;100.00;50.88;;;11.10;99.90;;;;;;4988722;28;20109;-67
2022/01/01 05:43:34;;;;;;;104.55;48.85;;;11.10;99.90;;;;;;4987000;28;20101;-67
2022/01/01 05:46:00;;;;;;;93.22;47.38;;;11.10;99.90;;;;;;4988129;28;20054;-67
2022/01/01 05:48:26;;;;;;;97.55;46.30;;;11.20;99.90;;;;;;4961897;28;20137;-67
2022/01/01 05:50:51;;;;;;;104.32;44.03;;;11.20;99.90;;;;;;4968683;28;20050;-67
2022/01/01 05:53:17;;;;;;;91.63;44.20;;;11.10;99.90;;;;;;4968834;28;20082;-68
2022/01/01 05:55:43;;;;;;;98.55;43.38;;;11.10;99.90;;;;;;4967944;28;20392;-67
2022/01/01 05:58:08;;;;;;;90.35;42.47;;;11.10;99.90;;;;;;4970044;28;20137;-67
2022/01/01 06:00:35;;;;;;;84.38;41.10;;;11.10;99.90;;;;;;4967534;28;20035;-67
2022/01/01 06:03:01;;;;;;;80.72;37.47;;;11.10;99.90;;;;;;4968705;28;20049;-67
2022/01/01 06:05:28;;;;;;;75.35;33.90;;;11.10;99.90;;;;;;4982034;28;20038;-68
2022/01/01 06:07:55;;;;;;;82.50;35.40;;;11.80;99.90;;;;;;4988241;28;20043;-68
2022/01/01 06:10:21;;;;;;;81.75;34.42;;;11.10;99.90;;;;;;4988312;28;20062;-67
2022/01/01 06:12:47;;;;;;;68.15;31.55;;;11.10;99.90;;;;;;4988137;28;20042;-67
2022/01/01 06:15:13;;;;;;;79.95;32.13;;;11.10;99.90;;;;;;4987949;28;20070;-69
2022/01/01 06:17:39;;;;;;;69.43;30.50;;;11.00;99.90;;;;;;4990664;28;20139;-67
2022/01/01 06:20:05;;;;;;;59.97;25.17;;;11.00;99.90;;;;;;4994190;28;20085;-67
2022/01/01 06:22:31;;;;;;;64.38;26.63;;;11.00;99.90;;;;;;4993266;28;20554;-67
2022/01/01 06:24:56;;;;;;;70.53;27.08;;;11.00;99.90;;;;;;4993823;28;20050;-67
2022/01/01 06:27:22;;;;;;;72.80;27.40;;;11.00;99.90;;;;;;4990714;28;20104;-67
2022/01/01 06:29:48;;;;;;;69.97;25.25;;;10.90;99.90;;;;;;4991902;28;20047;-67
2022/01/01 06:32:14;;;;;;;68.97;23.73;;;10.60;99.90;;;;;;4995283;28;20043;-67
2022/01/01 06:34:39;;;;;;;68.38;24.73;;;11.00;99.90;;;;;;4992945;28;20550;-67
2022/01/01 06:37:05;;;;;;;82.03;26.33;;;10.90;99.90;;;;;;4993381;28;20038;-67
2022/01/01 06:39:31;;;;;;;65.53;23.00;;;11.00;99.90;;;;;;4990830;28;20065;-67
2022/01/01 06:41:56;;;;;;;72.55;24.30;;;10.90;99.90;;;;;;4992026;28;20482;-67
2022/01/01 06:44:22;;;;;;;73.72;24.55;;;10.90;99.90;;;;;;4990429;28;20073;-67
2022/01/01 06:46:47;;;;;;;62.60;23.38;;;11.00;99.90;;;;;;4992665;28;20228;-67
2022/01/01 06:49:14;;;;;;;63.25;23.75;;;11.00;99.90;;;;;;4993466;28;20382;-67
2022/01/01 06:51:40;;;;;;;66.22;24.15;;;11.00;99.90;;;;;;4992684;28;20393;-69
2022/01/01 06:54:05;;;;;;;71.40;23.02;;;11.00;99.90;;;;;;4991563;28;20050;-68
2022/01/01 06:56:32;;;;;;;71.65;24.90;;;11.00;99.90;;;;;;4991057;28;20494;-67
2022/01/01 06:58:57;;;;;;;63.72;23.17;;;11.10;99.90;;;;;;4990145;28;20092;-67
2022/01/01 07:01:23;;;;;;;70.32;22.98;;;11.00;99.90;;;;;;4990973;28;20066;-67
2022/01/01 07:03:48;;;;;;;68.25;22.92;;;11.10;99.90;;;;;;4991398;28;20534;-67
2022/01/01 07:06:14;;;;;;;65.50;23.15;;;11.10;99.90;;;;;;4991643;28;20086;-67
2022/01/01 07:08:39;;;;;;;71.13;23.63;;;11.10;99.90;;;;;;4991128;28;20042;-66
2022/01/01 07:11:06;;;;;;;63.88;21.77;;;11.10;99.90;;;;;;4990895;28;20421;-67
2022/01/01 07:13:31;;;;;;;71.88;23.08;;;11.10;99.90;;;;;;4989643;28;20082;-67
2022/01/01 07:15:57;;;;;;;62.30;22.08;;;11.10;99.90;;;;;;4990044;28;20085;-66
2022/01/01 07:18:23;;;;;;;63.88;22.45;;;11.10;99.90;;;;;;4991199;28;20085;-68
2022/01/01 07:20:49;;;;;;;69.28;21.23;;;11.10;99.90;;;;;;4990054;28;20054;-67
2022/01/01 07:23:14;;;;;;;66.45;21.33;;;12.00;99.90;;;;;;4989112;28;20061;-67
2022/01/01 07:25:40;;;;;;;50.72;17.90;;;11.10;99.90;;;;;;4990686;28;20146;-67
2022/01/01 07:28:06;;;;;;;60.65;19.95;;;11.10;99.90;;;;;;4954699;28;20408;-67
2022/01/01 07:30:31;;;;;;;58.00;22.08;;;11.20;99.90;;;;;;4984972;28;20042;-67
2022/01/01 07:32:57;;;;;;;53.80;21.02;;;11.20;99.90;;;;;;4971969;28;20054;-69
2022/01/01 07:35:23;;;;;;;59.75;21.08;;;11.20;99.90;;;;;;4971550;28;20047;-67
2022/01/01 07:37:49;;;;;;;64.03;22.25;;;11.20;99.90;;;;;;4973828;28;20126;-67
2022/01/01 07:40:16;;;;;;;60.17;22.55;;;11.20;99.90;;;;;;4990458;28;20494;-67
2022/01/01 07:42:43;;;;;;;76.25;23.65;;;11.20;99.90;;;;;;4991705;28;20049;-67
2022/01/01 07:45:10;;;;;;;56.70;20.60;;;11.20;99.90;;;;;;4989835;28;20546;-67
2022/01/01 07:47:36;;;;;;;63.53;22.35;;;11.30;99.90;;;;;;4991328;28;20485;-67
2022/01/01 07:50:03;;;;;;;64.68;22.73;;;11.30;99.90;;;;;;4990787;28;20399;-67
2022/01/01 07:52:29;;;;;;;59.17;21.58;;;11.30;99.90;;;;;;4988647;28;20050;-66
2022/01/01 07:54:54;;;;;;;60.28;20.92;;;11.30;99.90;;;;;;4990497;28;20609;-67
2022/01/01 07:57:23;;;;;;;59.38;22.52;;;11.30;99.90;;;;;;4990989;28;20114;-67
2022/01/01 07:59:48;;;;;;;66.28;22.90;;;11.40;99.90;;;;;;4988392;28;20038;-67
2022/01/01 08:02:14;;;;;;;60.67;21.80;;;11.40;99.90;;;;;;4991943;28;20077;-68
2022/01/01 08:04:40;;;;;;;56.28;22.17;;;11.40;99.90;;;;;;4991341;28;20395;-67
2022/01/01 08:07:05;;;;;;;66.22;24.05;;;11.40;99.90;;;;;;4990334;28;20482;-67
2022/01/01 08:09:31;;;;;;;58.50;22.52;;;11.40;99.90;;;;;;4971633;28;20056;-67
2022/01/01 08:11:56;;;;;;;61.80;24.75;;;11.40;99.90;;;;;;4990104;28;20043;-67
2022/01/01 08:14:22;;;;;;;62.70;24.15;;;11.40;99.90;;;;;;4986742;28;20043;-67
2022/01/01 08:16:58;;;;;;;62.70;23.15;;;11.40;99.90;;;;;;4986293;28;20053;-67
2022/01/01 08:19:24;;;;;;;54.10;23.35;;;11.50;99.90;;;;;;4968276;28;20344;-67
2022/01/01 08:21:50;;;;;;;66.95;25.05;;;12.40;99.90;;;;;;4970084;28;20081;-67
2022/01/01 08:24:16;;;;;;;68.20;25.30;;;11.90;99.90;;;;;;4969941;28;20043;-67
2022/01/01 08:26:41;;;;;;;69.95;25.38;;;11.60;99.90;;;;;;4972561;28;20537;-67
2022/01/01 08:29:07;;;;;;;65.78;26.88;;;11.60;99.90;;;;;;4968821;28;20360;-67
2022/01/01 08:31:33;;;;;;;75.22;26.50;;;11.60;99.90;;;;;;4968305;28;20057;-67
2022/01/01 08:33:58;;;;;;;72.38;27.85;;;11.60;99.90;;;;;;4971499;28;20054;-67
2022/01/01 08:36:24;;;;;;;57.67;23.77;;;11.70;99.90;;;;;;4970513;28;20746;-67
2022/01/01 08:38:49;;;;;;;72.72;28.70;;;11.70;99.90;;;;;;4971461;28;20058;-67
2022/01/01 08:41:16;;;;;;;69.22;27.13;;;11.90;99.90;;;;;;4971081;28;20486;-68
2022/01/01 08:43:41;;;;;;;63.45;27.00;;;11.70;99.90;;;;;;4969458;28;20125;-66
2022/01/01 08:46:07;;;;;;;72.90;28.05;;;11.70;99.90;;;;;;4969415;28;20201;-67
2022/01/01 08:48:33;;;;;;;71.55;29.10;;;11.70;99.90;;;;;;4971274;28;20057;-67
2022/01/01 08:51:10;;;;;;;70.32;28.38;;;11.70;99.90;;;;;;4971039;28;20046;-67
2022/01/01 08:53:35;;;;;;;68.07;28.55;;;11.80;99.90;;;;;;4968715;28;20065;-67
2022/01/01 08:56:02;;;;;;;66.32;27.38;;;11.80;99.90;;;;;;4969896;28;20046;-67
2022/01/01 08:58:27;;;;;;;64.03;25.83;;;11.80;99.90;;;;;;4969896;28;20047;-67
2022/01/01 09:00:53;;;;;;;62.15;28.05;;;11.90;99.90;;;;;;4969092;28;20039;-67
2022/01/01 09:03:19;;;;;;;59.85;25.80;;;11.90;99.90;;;;;;4971425;28;20151;-67
2022/01/01 09:05:44;;;;;;;57.83;26.27;;;11.90;99.90;;;;;;4971674;28;20050;-67
2022/01/01 09:08:10;;;;;;;61.35;26.65;;;12.00;99.90;;;;;;4952011;28;20074;-67
2022/01/01 09:10:35;;;;;;;57.50;26.45;;;12.00;99.90;;;;;;4967713;28;20425;-68
2022/01/01 09:13:01;;;;;;;54.33;25.58;;;12.00;99.90;;;;;;4969215;28;20571;-67
2022/01/01 09:15:27;;;;;;;59.00;25.33;;;12.10;99.90;;;;;;4967133;28;20129;-68
2022/01/01 09:17:52;;;;;;;61.22;26.75;;;12.10;99.90;;;;;;4968657;28;20135;-68
2022/01/01 09:20:18;;;;;;;60.33;24.90;;;12.20;99.90;;;;;;4968196;28;20094;-68
2022/01/01 09:22:44;;;;;;;45.25;22.75;;;12.20;99.90;;;;;;4967557;28;20050;-67
2022/01/01 09:25:09;;;;;;;52.78;26.48;;;12.20;99.90;;;;;;4969910;28;20062;-67
2022/01/01 09:27:35;;;;;;;49.95;23.33;;;12.30;99.90;;;;;;4970021;28;20085;-67
2022/01/01 09:30:00;;;;;;;47.90;24.85;;;12.40;99.90;;;;;;4967976;28;20038;-68
2022/01/01 09:32:26;;;;;;;51.17;26.02;;;12.50;99.90;;;;;;4968628;28;20054;-67
2022/01/01 09:34:52;;;;;;;42.80;22.92;;;12.40;99.90;;;;;;4970571;28;20500;-68
2022/01/01 09:37:18;;;;;;;49.88;23.95;;;12.40;99.90;;;;;;4969898;28;20047;-68
2022/01/01 09:39:43;;;;;;;49.05;24.60;;;12.60;99.90;;;;;;4969653;28;20078;-67
2022/01/01 09:42:11;;;;;;;47.47;23.63;;;12.60;99.90;;;;;;4987072;28;20050;-68
2022/01/01 09:44:38;;;;;;;44.33;23.00;;;12.60;99.90;;;;;;4986604;28;20046;-67
2022/01/01 09:47:04;;;;;;;42.50;21.20;;;12.70;99.90;;;;;;4988098;28;20047;-68
2022/01/01 09:49:29;;;;;;;39.00;20.40;;;12.70;99.90;;;;;;4988000;28;20525;-68
2022/01/01 09:51:55;;;;;;;32.17;19.42;;;12.70;99.90;;;;;;4993643;28;20088;-67
2022/01/01 09:54:21;;;;;;;35.92;18.98;;;12.80;99.90;;;;;;4973747;28;20058;-68
2022/01/01 09:56:46;;;;;;;42.97;19.02;;;12.80;99.90;;;;;;4993262;28;20038;-67
2022/01/01 09:59:14;;;;;;;38.88;19.23;;;12.90;99.90;;;;;;4994402;28;20129;-68
2022/01/01 10:01:39;;;;;;;36.92;17.92;;;12.90;99.90;;;;;;4993007;28;20046;-67
2022/01/01 10:04:13;;;;;;;33.67;18.58;;;13.40;99.90;;;;;;4992427;28;20414;-67
2022/01/01 10:06:39;;;;;;;32.40;17.35;;;12.40;99.90;;;;;;4992985;28;20055;-67
2022/01/01 10:09:06;;;;;;;31.88;16.25;;;12.90;99.90;;;;;;4992053;28;20053;-67
2022/01/01 10:11:33;;;;;;;31.85;16.10;;;13.00;99.90;;;;;;4992521;28;20434;-67
2022/01/01 10:14:03;;;;;;;30.65;15.30;;;13.20;99.90;;;;;;4991313;28;20086;-67
2022/01/01 10:16:28;;;;;;;28.00;15.43;;;13.00;99.90;;;;;;4992054;28;20046;-68
2022/01/01 10:18:54;;;;;;;29.08;14.20;;;12.90;99.90;;;;;;4990749;28;20081;-67
2022/01/01 10:21:28;;;;;;;27.05;13.82;;;13.50;99.90;;;;;;4991935;28;20097;-68
2022/01/01 10:23:57;;;;;;;25.80;13.10;;;13.00;99.90;;;;;;4992336;28;20050;-67
2022/01/01 10:29:26;;;;;;;22.08;12.50;;;14.00;99.90;;;;;;4992216;28;20058;-67
2022/01/01 10:32:13;;;;;;;27.10;12.02;;;13.10;99.90;;;;;;4991182;28;20038;-67
2022/01/01 10:34:44;;;;;;;29.30;12.75;;;13.10;99.90;;;;;;4992323;28;20406;-67
2022/01/01 10:37:14;;;;;;;27.35;11.77;;;13.10;99.90;;;;;;4991690;28;20480;-67
2022/01/01 10:39:58;;;;;;;29.27;12.32;;;13.10;99.90;;;;;;4990844;28;20054;-67
2022/01/01 10:42:24;;;;;;;28.95;12.43;;;13.00;99.90;;;;;;4990514;28;20465;-67
2022/01/01 10:44:53;;;;;;;26.73;13.30;;;13.10;99.90;;;;;;4991844;28;20054;-67
2022/01/01 10:47:28;;;;;;;26.92;12.48;;;13.00;99.90;;;;;;4991290;28;20053;-67
2022/01/01 10:52:42;;;;;;;25.08;11.90;;;13.00;99.90;;;;;;4989684;28;20086;-67
2022/01/01 10:55:08;;;;;;;23.90;12.52;;;13.10;99.90;;;;;;4989861;28;20046;-67
2022/01/01 10:57:39;;;;;;;27.45;12.80;;;13.10;99.90;;;;;;4991598;28;20046;-67
2022/01/01 11:00:20;;;;;;;27.20;15.75;;;13.10;99.90;;;;;;4973181;28;20050;-69
2022/01/01 11:02:51;;;;;;;24.33;13.45;;;13.20;99.90;;;;;;4993916;28;20061;-67
2022/01/01 11:05:26;;;;;;;29.58;12.82;;;13.20;99.90;;;;;;4990708;28;20474;-67
2022/01/01 11:07:52;;;;;;;27.75;13.93;;;13.30;99.90;;;;;;4973430;28;20045;-67
2022/01/01 11:10:20;;;;;;;26.15;11.95;;;13.30;99.90;;;;;;4990354;28;20074;-67
2022/01/01 11:12:46;;;;;;;26.65;12.23;;;13.30;99.90;;;;;;4992033;28;20096;-67
2022/01/01 11:15:13;;;;;;;28.02;13.52;;;13.30;99.90;;;;;;4988772;28;20458;-67
2022/01/01 11:17:39;;;;;;;23.45;12.18;;;13.20;99.90;;;;;;4973653;28;20521;-67
2022/01/01 11:20:06;;;;;;;24.80;12.90;;;13.20;99.90;;;;;;4989885;28;20506;-67
2022/01/01 11:22:32;;;;;;;24.08;12.63;;;13.20;99.90;;;;;;4989006;28;20458;-67
2022/01/01 11:24:59;;;;;;;24.08;12.18;;;13.10;99.90;;;;;;4991522;28;20042;-67
2022/01/01 11:27:26;;;;;;;28.58;11.85;;;13.10;99.90;;;;;;4976504;28;20047;-69
2022/01/01 11:29:54;;;;;;;23.33;12.68;;;13.10;99.90;;;;;;4971331;28;20057;-68
2022/01/01 11:32:23;;;;;;;25.48;12.07;;;13.10;99.90;;;;;;4970590;28;20094;-67
2022/01/01 11:34:52;;;;;;;25.05;11.73;;;13.10;99.90;;;;;;4971657;28;20407;-67
2022/01/01 11:37:23;;;;;;;24.35;12.30;;;13.20;99.90;;;;;;4970150;28;20081;-67
2022/01/01 11:39:56;;;;;;;24.17;12.65;;;13.30;99.90;;;;;;4970119;28;20089;-67
2022/01/01 11:42:22;;;;;;;23.70;11.40;;;13.20;99.90;;;;;;4969235;28;20093;-67
2022/01/01 11:44:55;;;;;;;21.45;11.35;;;13.20;99.90;;;;;;4972124;28;20070;-67
2022/01/01 11:47:22;;;;;;;27.05;12.52;;;13.20;99.90;;;;;;4973911;28;20051;-67
2022/01/01 11:49:50;;;;;;;25.02;11.95;;;13.30;99.90;;;;;;4971604;28;20050;-67
2022/01/01 11:52:36;;;;;;;23.15;10.55;;;13.50;99.90;;;;;;4970458;28;20059;-67
2022/01/01 11:55:05;;;;;;;20.33;10.60;;;13.30;99.90;;;;;;4969774;28;20133;-67
2022/01/01 11:57:31;;;;;;;20.00;10.05;;;13.30;99.90;;;;;;4970528;28;20062;-67
2022/01/01 12:00:01;;;;;;;23.52;9.45;;;13.30;99.90;;;;;;4970024;28;20074;-67
2022/01/01 12:02:32;;;;;;;19.98;9.23;;;13.30;99.90;;;;;;4969276;28;20156;-69
2022/01/01 12:05:17;;;;;;;18.67;9.18;;;13.30;99.90;;;;;;4969975;28;20085;-67
2022/01/01 12:07:49;;;;;;;19.02;9.38;;;13.40;99.90;;;;;;4970092;28;20082;-67
2022/01/01 12:10:26;;;;;;;18.17;8.60;;;13.30;99.90;;;;;;4969591;28;20058;-67
2022/01/01 12:12:58;;;;;;;19.65;8.57;;;13.40;99.90;;;;;;4970250;28;20348;-67
2022/01/01 12:15:40;;;;;;;17.88;7.68;;;13.40;99.90;;;;;;4973324;28;20058;-67
2022/01/01 12:18:10;;;;;;;17.23;7.30;;;13.40;99.90;;;;;;4990339;28;20089;-67
2022/01/01 12:20:51;;;;;;;17.17;7.10;;;13.40;99.90;;;;;;4989385;28;20092;-67
2022/01/01 12:23:20;;;;;;;19.67;7.35;;;13.40;99.90;;;;;;4988085;28;20092;-67
2022/01/01 12:25:46;;;;;;;13.05;6.68;;;13.40;99.90;;;;;;4989276;28;20378;-67
2022/01/01 12:28:15;;;;;;;15.73;6.38;;;13.40;99.90;;;;;;4990095;28;20046;-67
2022/01/01 12:30:47;;;;;;;12.13;6.57;;;13.40;99.90;;;;;;4971760;28;20054;-67
2022/01/01 12:33:25;;;;;;;18.63;7.38;;;13.40;99.90;;;;;;4990161;28;20086;-67